sensor_id;sensor_type;location;lat;lon;timestamp;P1;durP1;ratioP1;P2;durP2;ratioP2
24151;SDS011;12311;50.866;4.332;2024-03-06T00:02:20;5.18;;;2.90;;
24151;SDS011;12311;50.866;4.332;2024-03-06T00:04:46;6.65;;;3.10;;
24151;SDS011;12311;50.866;4.332;2024-03-06T00:07:12;6.10;;;3.00;;
24151;SDS011;12311;50.866;4.332;2024-03-06T00:09:37;8.63;;;2.90;;
24151;SDS011;12311;50.866;4.332;2024-03-06T00:12:03;7.38;;;3.33;;
24151;SDS011;12311;50.866;4.332;2024-03-06T00:14:29;6.50;;;3.13;;
24151;SDS011;12311;50.866;4.332;2024-03-06T00:16:55;6.90;;;3.58;;
24151;SDS011;12311;50.866;4.332;2024-03-06T00:19:23;7.72;;;3.22;;
24151;SDS011;12311;50.866;4.332;2024-03-06T00:21:48;7.32;;;3.20;;
24151;SDS011;12311;50.866;4.332;2024-03-06T00:24:14;7.47;;;3.03;;
24151;SDS011;12311;50.866;4.332;2024-03-06T00:26:41;6.40;;;3.05;;
24151;SDS011;12311;50.866;4.332;2024-03-06T00:29:08;7.57;;;3.72;;
24151;SDS011;12311;50.866;4.332;2024-03-06T00:31:34;7.78;;;3.72;;
24151;SDS011;12311;50.866;4.332;2024-03-06T00:34:00;7.82;;;3.50;;
24151;SDS011;12311;50.866;4.332;2024-03-06T00:36:26;9.90;;;3.38;;
24151;SDS011;12311;50.866;4.332;2024-03-06T00:38:51;6.47;;;3.40;;
24151;SDS011;12311;50.866;4.332;2024-03-06T00:41:17;6.82;;;3.30;;
24151;SDS011;12311;50.866;4.332;2024-03-06T00:43:43;31.60;;;9.52;;
24151;SDS011;12311;50.866;4.332;2024-03-06T00:46:08;8.63;;;4.22;;
24151;SDS011;12311;50.866;4.332;2024-03-06T00:48:34;7.47;;;3.30;;
24151;SDS011;12311;50.866;4.332;2024-03-06T00:51:00;9.65;;;3.65;;
24151;SDS011;12311;50.866;4.332;2024-03-06T00:53:25;8.07;;;3.25;;
24151;SDS011;12311;50.866;4.332;2024-03-06T00:55:51;6.47;;;2.97;;
24151;SDS011;12311;50.866;4.332;2024-03-06T00:58:16;8.23;;;3.47;;
24151;SDS011;12311;50.866;4.332;2024-03-06T01:00:42;9.00;;;3.70;;
24151;SDS011;12311;50.866;4.332;2024-03-06T01:03:08;5.85;;;3.20;;
24151;SDS011;12311;50.866;4.332;2024-03-06T01:05:33;7.32;;;3.63;;
24151;SDS011;12311;50.866;4.332;2024-03-06T01:08:00;8.32;;;3.60;;
24151;SDS011;12311;50.866;4.332;2024-03-06T01:10:26;7.03;;;3.05;;
24151;SDS011;12311;50.866;4.332;2024-03-06T01:12:52;7.25;;;3.30;;
24151;SDS011;12311;50.866;4.332;2024-03-06T01:15:17;7.28;;;3.50;;
24151;SDS011;12311;50.866;4.332;2024-03-06T01:17:43;6.07;;;3.20;;
24151;SDS011;12311;50.866;4.332;2024-03-06T01:20:09;6.38;;;3.10;;
24151;SDS011;12311;50.866;4.332;2024-03-06T01:22:35;8.48;;;3.17;;
24151;SDS011;12311;50.866;4.332;2024-03-06T01:25:01;7.47;;;3.30;;
24151;SDS011;12311;50.866;4.332;2024-03-06T01:27:27;11.60;;;3.38;;
24151;SDS011;12311;50.866;4.332;2024-03-06T01:29:53;5.53;;;3.08;;
24151;SDS011;12311;50.866;4.332;2024-03-06T01:32:18;6.70;;;3.40;;
24151;SDS011;12311;50.866;4.332;2024-03-06T01:34:44;6.38;;;3.03;;
24151;SDS011;12311;50.866;4.332;2024-03-06T01:37:10;8.25;;;3.28;;
24151;SDS011;12311;50.866;4.332;2024-03-06T01:39:36;7.32;;;2.97;;
24151;SDS011;12311;50.866;4.332;2024-03-06T01:42:02;5.28;;;2.95;;
24151;SDS011;12311;50.866;4.332;2024-03-06T01:44:28;8.50;;;3.28;;
24151;SDS011;12311;50.866;4.332;2024-03-06T01:46:54;5.88;;;2.88;;
24151;SDS011;12311;50.866;4.332;2024-03-06T01:49:20;8.05;;;3.33;;
24151;SDS011;12311;50.866;4.332;2024-03-06T01:51:51;7.10;;;3.30;;
24151;SDS011;12311;50.866;4.332;2024-03-06T01:54:18;6.35;;;3.28;;
24151;SDS011;12311;50.866;4.332;2024-03-06T01:56:45;10.38;;;3.38;;
24151;SDS011;12311;50.866;4.332;2024-03-06T01:59:12;6.63;;;3.63;;
24151;SDS011;12311;50.866;4.332;2024-03-06T02:01:40;9.30;;;3.55;;
24151;SDS011;12311;50.866;4.332;2024-03-06T02:04:09;6.80;;;2.95;;
24151;SDS011;12311;50.866;4.332;2024-03-06T02:06:37;6.35;;;3.22;;
24151;SDS011;12311;50.866;4.332;2024-03-06T02:09:07;8.77;;;3.58;;
24151;SDS011;12311;50.866;4.332;2024-03-06T02:11:34;6.47;;;3.60;;
24151;SDS011;12311;50.866;4.332;2024-03-06T02:14:00;7.45;;;3.85;;
24151;SDS011;12311;50.866;4.332;2024-03-06T02:16:26;8.60;;;3.75;;
24151;SDS011;12311;50.866;4.332;2024-03-06T02:18:55;7.90;;;3.63;;
24151;SDS011;12311;50.866;4.332;2024-03-06T02:21:24;7.15;;;3.40;;
24151;SDS011;12311;50.866;4.332;2024-03-06T02:23:51;7.68;;;3.55;;
24151;SDS011;12311;50.866;4.332;2024-03-06T02:26:17;8.25;;;3.60;;
24151;SDS011;12311;50.866;4.332;2024-03-06T02:28:47;10.20;;;4.00;;
24151;SDS011;12311;50.866;4.332;2024-03-06T02:31:14;7.97;;;3.90;;
24151;SDS011;12311;50.866;4.332;2024-03-06T02:33:40;8.57;;;3.92;;
24151;SDS011;12311;50.866;4.332;2024-03-06T02:36:07;9.48;;;3.78;;
24151;SDS011;12311;50.866;4.332;2024-03-06T02:38:33;8.30;;;3.80;;
24151;SDS011;12311;50.866;4.332;2024-03-06T02:40:59;6.80;;;3.65;;
24151;SDS011;12311;50.866;4.332;2024-03-06T02:43:25;6.68;;;3.42;;
24151;SDS011;12311;50.866;4.332;2024-03-06T02:45:51;7.85;;;3.20;;
24151;SDS011;12311;50.866;4.332;2024-03-06T02:48:16;9.45;;;4.28;;
24151;SDS011;12311;50.866;4.332;2024-03-06T02:50:42;7.90;;;3.45;;
24151;SDS011;12311;50.866;4.332;2024-03-06T02:53:07;6.72;;;3.78;;
24151;SDS011;12311;50.866;4.332;2024-03-06T02:55:33;9.43;;;3.42;;
24151;SDS011;12311;50.866;4.332;2024-03-06T02:58:02;10.23;;;3.97;;
24151;SDS011;12311;50.866;4.332;2024-03-06T03:00:28;9.40;;;4.18;;
24151;SDS011;12311;50.866;4.332;2024-03-06T03:02:56;7.43;;;3.60;;
24151;SDS011;12311;50.866;4.332;2024-03-06T03:05:22;7.20;;;3.42;;
24151;SDS011;12311;50.866;4.332;2024-03-06T03:07:48;8.48;;;3.58;;
24151;SDS011;12311;50.866;4.332;2024-03-06T03:10:15;6.82;;;3.78;;
24151;SDS011;12311;50.866;4.332;2024-03-06T03:12:40;10.93;;;4.30;;
24151;SDS011;12311;50.866;4.332;2024-03-06T03:15:06;10.23;;;4.18;;
24151;SDS011;12311;50.866;4.332;2024-03-06T03:17:33;7.43;;;3.70;;
24151;SDS011;12311;50.866;4.332;2024-03-06T03:19:59;9.18;;;3.92;;
24151;SDS011;12311;50.866;4.332;2024-03-06T03:22:25;7.13;;;4.07;;
24151;SDS011;12311;50.866;4.332;2024-03-06T03:24:50;14.57;;;3.80;;
24151;SDS011;12311;50.866;4.332;2024-03-06T03:27:16;11.38;;;3.53;;
24151;SDS011;12311;50.866;4.332;2024-03-06T03:29:43;7.78;;;3.65;;
24151;SDS011;12311;50.866;4.332;2024-03-06T03:32:08;9.48;;;4.45;;
24151;SDS011;12311;50.866;4.332;2024-03-06T03:34:34;8.80;;;4.00;;
24151;SDS011;12311;50.866;4.332;2024-03-06T03:37:00;8.50;;;4.20;;
24151;SDS011;12311;50.866;4.332;2024-03-06T03:39:26;8.15;;;3.70;;
24151;SDS011;12311;50.866;4.332;2024-03-06T03:41:52;7.22;;;3.60;;
24151;SDS011;12311;50.866;4.332;2024-03-06T03:44:18;9.77;;;3.83;;
24151;SDS011;12311;50.866;4.332;2024-03-06T03:46:44;6.80;;;3.88;;
24151;SDS011;12311;50.866;4.332;2024-03-06T03:49:10;8.30;;;3.42;;
24151;SDS011;12311;50.866;4.332;2024-03-06T03:51:39;8.27;;;3.97;;
24151;SDS011;12311;50.866;4.332;2024-03-06T03:54:05;11.02;;;4.28;;
24151;SDS011;12311;50.866;4.332;2024-03-06T03:56:31;9.75;;;4.22;;
24151;SDS011;12311;50.866;4.332;2024-03-06T03:58:58;9.52;;;4.03;;
24151;SDS011;12311;50.866;4.332;2024-03-06T04:01:24;10.10;;;4.10;;
24151;SDS011;12311;50.866;4.332;2024-03-06T04:03:50;10.73;;;4.47;;
24151;SDS011;12311;50.866;4.332;2024-03-06T04:06:17;8.90;;;3.90;;
24151;SDS011;12311;50.866;4.332;2024-03-06T04:08:42;9.98;;;4.18;;
24151;SDS011;12311;50.866;4.332;2024-03-06T04:11:08;8.30;;;3.50;;
24151;SDS011;12311;50.866;4.332;2024-03-06T04:13:37;7.07;;;3.72;;
24151;SDS011;12311;50.866;4.332;2024-03-06T04:16:03;8.48;;;4.22;;
24151;SDS011;12311;50.866;4.332;2024-03-06T04:18:30;10.45;;;3.95;;
24151;SDS011;12311;50.866;4.332;2024-03-06T04:21:03;8.20;;;3.80;;
24151;SDS011;12311;50.866;4.332;2024-03-06T04:23:31;6.90;;;3.58;;
24151;SDS011;12311;50.866;4.332;2024-03-06T04:25:57;14.40;;;4.63;;
24151;SDS011;12311;50.866;4.332;2024-03-06T04:28:26;8.95;;;4.53;;
24151;SDS011;12311;50.866;4.332;2024-03-06T04:30:52;8.45;;;4.05;;
24151;SDS011;12311;50.866;4.332;2024-03-06T04:33:17;8.55;;;4.03;;
24151;SDS011;12311;50.866;4.332;2024-03-06T04:35:43;8.10;;;4.07;;
24151;SDS011;12311;50.866;4.332;2024-03-06T04:38:09;9.07;;;4.15;;
24151;SDS011;12311;50.866;4.332;2024-03-06T04:40:34;10.23;;;4.57;;
24151;SDS011;12311;50.866;4.332;2024-03-06T04:43:00;8.40;;;4.10;;
24151;SDS011;12311;50.866;4.332;2024-03-06T04:45:26;8.60;;;4.22;;
24151;SDS011;12311;50.866;4.332;2024-03-06T04:47:55;14.48;;;4.28;;
24151;SDS011;12311;50.866;4.332;2024-03-06T04:50:21;8.95;;;4.20;;
24151;SDS011;12311;50.866;4.332;2024-03-06T04:52:47;8.32;;;3.65;;
24151;SDS011;12311;50.866;4.332;2024-03-06T04:55:12;10.40;;;4.60;;
24151;SDS011;12311;50.866;4.332;2024-03-06T04:57:41;8.02;;;4.20;;
24151;SDS011;12311;50.866;4.332;2024-03-06T05:00:09;10.95;;;4.78;;
24151;SDS011;12311;50.866;4.332;2024-03-06T05:02:35;8.68;;;4.03;;
24151;SDS011;12311;50.866;4.332;2024-03-06T05:05:04;9.07;;;3.97;;
24151;SDS011;12311;50.866;4.332;2024-03-06T05:07:30;9.55;;;4.07;;
24151;SDS011;12311;50.866;4.332;2024-03-06T05:09:57;9.57;;;3.95;;
24151;SDS011;12311;50.866;4.332;2024-03-06T05:12:26;8.80;;;4.07;;
24151;SDS011;12311;50.866;4.332;2024-03-06T05:14:53;9.07;;;3.83;;
24151;SDS011;12311;50.866;4.332;2024-03-06T05:17:19;7.68;;;3.70;;
24151;SDS011;12311;50.866;4.332;2024-03-06T05:19:46;10.25;;;4.65;;
24151;SDS011;12311;50.866;4.332;2024-03-06T05:22:13;8.77;;;4.28;;
24151;SDS011;12311;50.866;4.332;2024-03-06T05:24:39;8.50;;;4.53;;
24151;SDS011;12311;50.866;4.332;2024-03-06T05:27:05;9.52;;;4.32;;
24151;SDS011;12311;50.866;4.332;2024-03-06T05:29:31;9.30;;;4.25;;
24151;SDS011;12311;50.866;4.332;2024-03-06T05:31:57;10.82;;;5.00;;
24151;SDS011;12311;50.866;4.332;2024-03-06T05:34:22;12.80;;;4.53;;
24151;SDS011;12311;50.866;4.332;2024-03-06T05:36:48;9.07;;;4.45;;
24151;SDS011;12311;50.866;4.332;2024-03-06T05:39:14;9.48;;;5.13;;
24151;SDS011;12311;50.866;4.332;2024-03-06T05:41:40;9.63;;;4.47;;
24151;SDS011;12311;50.866;4.332;2024-03-06T05:44:06;10.52;;;5.15;;
24151;SDS011;12311;50.866;4.332;2024-03-06T05:46:32;9.30;;;4.40;;
24151;SDS011;12311;50.866;4.332;2024-03-06T05:48:58;10.63;;;4.40;;
24151;SDS011;12311;50.866;4.332;2024-03-06T05:51:24;11.93;;;4.63;;
24151;SDS011;12311;50.866;4.332;2024-03-06T05:53:50;12.52;;;4.88;;
24151;SDS011;12311;50.866;4.332;2024-03-06T05:56:16;10.80;;;4.50;;
24151;SDS011;12311;50.866;4.332;2024-03-06T05:58:43;9.95;;;4.65;;
24151;SDS011;12311;50.866;4.332;2024-03-06T06:01:11;11.23;;;5.28;;
24151;SDS011;12311;50.866;4.332;2024-03-06T06:03:38;11.57;;;5.53;;
24151;SDS011;12311;50.866;4.332;2024-03-06T06:06:04;14.32;;;5.50;;
24151;SDS011;12311;50.866;4.332;2024-03-06T06:08:30;11.15;;;5.43;;
24151;SDS011;12311;50.866;4.332;2024-03-06T06:10:56;12.07;;;5.03;;
24151;SDS011;12311;50.866;4.332;2024-03-06T06:13:21;17.27;;;5.80;;
24151;SDS011;12311;50.866;4.332;2024-03-06T06:15:47;9.52;;;4.63;;
24151;SDS011;12311;50.866;4.332;2024-03-06T06:18:13;14.68;;;5.07;;
24151;SDS011;12311;50.866;4.332;2024-03-06T06:20:40;11.65;;;4.90;;
24151;SDS011;12311;50.866;4.332;2024-03-06T06:23:07;11.30;;;4.80;;
24151;SDS011;12311;50.866;4.332;2024-03-06T06:25:33;11.38;;;4.25;;
24151;SDS011;12311;50.866;4.332;2024-03-06T06:28:00;12.02;;;5.18;;
24151;SDS011;12311;50.866;4.332;2024-03-06T06:30:26;13.30;;;5.32;;
24151;SDS011;12311;50.866;4.332;2024-03-06T06:32:52;11.40;;;5.22;;
24151;SDS011;12311;50.866;4.332;2024-03-06T06:35:17;10.93;;;4.97;;
24151;SDS011;12311;50.866;4.332;2024-03-06T06:37:43;11.32;;;4.65;;
24151;SDS011;12311;50.866;4.332;2024-03-06T06:40:09;11.43;;;5.30;;
24151;SDS011;12311;50.866;4.332;2024-03-06T06:42:36;13.18;;;5.10;;
24151;SDS011;12311;50.866;4.332;2024-03-06T06:45:03;9.63;;;4.88;;
24151;SDS011;12311;50.866;4.332;2024-03-06T06:47:31;11.10;;;4.82;;
24151;SDS011;12311;50.866;4.332;2024-03-06T06:49:57;12.13;;;4.68;;
24151;SDS011;12311;50.866;4.332;2024-03-06T06:52:22;10.63;;;5.15;;
24151;SDS011;12311;50.866;4.332;2024-03-06T06:54:48;13.30;;;5.07;;
24151;SDS011;12311;50.866;4.332;2024-03-06T06:57:16;13.15;;;5.75;;
24151;SDS011;12311;50.866;4.332;2024-03-06T06:59:41;10.93;;;5.28;;
24151;SDS011;12311;50.866;4.332;2024-03-06T07:02:07;9.88;;;4.90;;
24151;SDS011;12311;50.866;4.332;2024-03-06T07:04:33;14.13;;;5.20;;
24151;SDS011;12311;50.866;4.332;2024-03-06T07:06:59;14.85;;;5.95;;
24151;SDS011;12311;50.866;4.332;2024-03-06T07:09:25;10.63;;;5.05;;
24151;SDS011;12311;50.866;4.332;2024-03-06T07:11:54;11.85;;;5.28;;
24151;SDS011;12311;50.866;4.332;2024-03-06T07:14:20;10.93;;;5.20;;
24151;SDS011;12311;50.866;4.332;2024-03-06T07:16:46;10.88;;;4.97;;
24151;SDS011;12311;50.866;4.332;2024-03-06T07:19:12;11.23;;;4.60;;
24151;SDS011;12311;50.866;4.332;2024-03-06T07:21:37;14.07;;;5.45;;
24151;SDS011;12311;50.866;4.332;2024-03-06T07:24:04;14.52;;;6.00;;
24151;SDS011;12311;50.866;4.332;2024-03-06T07:26:33;13.23;;;5.28;;
24151;SDS011;12311;50.866;4.332;2024-03-06T07:28:59;14.27;;;5.35;;
24151;SDS011;12311;50.866;4.332;2024-03-06T07:31:25;14.00;;;5.25;;
24151;SDS011;12311;50.866;4.332;2024-03-06T07:33:51;13.23;;;5.40;;
24151;SDS011;12311;50.866;4.332;2024-03-06T07:36:17;10.98;;;5.22;;
24151;SDS011;12311;50.866;4.332;2024-03-06T07:38:44;12.93;;;5.43;;
24151;SDS011;12311;50.866;4.332;2024-03-06T07:41:09;12.23;;;5.18;;
24151;SDS011;12311;50.866;4.332;2024-03-06T07:43:35;10.90;;;5.30;;
24151;SDS011;12311;50.866;4.332;2024-03-06T07:46:03;11.18;;;5.18;;
24151;SDS011;12311;50.866;4.332;2024-03-06T07:51:06;20.48;;;5.55;;
24151;SDS011;12311;50.866;4.332;2024-03-06T07:53:33;14.82;;;5.82;;
24151;SDS011;12311;50.866;4.332;2024-03-06T07:55:58;10.60;;;4.90;;
24151;SDS011;12311;50.866;4.332;2024-03-06T07:58:24;14.95;;;5.60;;
24151;SDS011;12311;50.866;4.332;2024-03-06T08:00:49;11.50;;;5.72;;
24151;SDS011;12311;50.866;4.332;2024-03-06T08:03:18;8.38;;;4.53;;
24151;SDS011;12311;50.866;4.332;2024-03-06T08:05:44;11.05;;;5.65;;
24151;SDS011;12311;50.866;4.332;2024-03-06T08:08:09;11.45;;;5.13;;
24151;SDS011;12311;50.866;4.332;2024-03-06T08:10:35;14.90;;;5.53;;
24151;SDS011;12311;50.866;4.332;2024-03-06T08:13:01;16.20;;;5.88;;
24151;SDS011;12311;50.866;4.332;2024-03-06T08:15:26;13.15;;;6.80;;
24151;SDS011;12311;50.866;4.332;2024-03-06T08:17:52;15.30;;;6.88;;
24151;SDS011;12311;50.866;4.332;2024-03-06T08:20:17;14.82;;;6.38;;
24151;SDS011;12311;50.866;4.332;2024-03-06T08:22:43;14.32;;;6.00;;
24151;SDS011;12311;50.866;4.332;2024-03-06T08:25:09;12.95;;;4.65;;
24151;SDS011;12311;50.866;4.332;2024-03-06T08:27:38;11.15;;;5.00;;
24151;SDS011;12311;50.866;4.332;2024-03-06T08:30:05;10.20;;;4.78;;
24151;SDS011;12311;50.866;4.332;2024-03-06T08:32:32;11.20;;;4.75;;
24151;SDS011;12311;50.866;4.332;2024-03-06T08:35:00;8.82;;;4.07;;
24151;SDS011;12311;50.866;4.332;2024-03-06T08:37:32;12.23;;;5.03;;
24151;SDS011;12311;50.866;4.332;2024-03-06T08:39:59;7.13;;;3.92;;
24151;SDS011;12311;50.866;4.332;2024-03-06T08:42:24;10.07;;;4.35;;
24151;SDS011;12311;50.866;4.332;2024-03-06T08:44:50;9.45;;;4.32;;
24151;SDS011;12311;50.866;4.332;2024-03-06T08:47:16;10.23;;;4.53;;
24151;SDS011;12311;50.866;4.332;2024-03-06T08:49:42;6.38;;;3.30;;
24151;SDS011;12311;50.866;4.332;2024-03-06T08:52:07;11.27;;;4.50;;
24151;SDS011;12311;50.866;4.332;2024-03-06T08:54:35;7.95;;;3.67;;
24151;SDS011;12311;50.866;4.332;2024-03-06T08:57:01;9.73;;;4.55;;
24151;SDS011;12311;50.866;4.332;2024-03-06T08:59:28;8.32;;;4.53;;
24151;SDS011;12311;50.866;4.332;2024-03-06T09:01:54;7.78;;;3.97;;
24151;SDS011;12311;50.866;4.332;2024-03-06T09:04:20;9.23;;;3.67;;
24151;SDS011;12311;50.866;4.332;2024-03-06T09:06:46;12.45;;;4.53;;
24151;SDS011;12311;50.866;4.332;2024-03-06T09:09:12;10.00;;;4.50;;
24151;SDS011;12311;50.866;4.332;2024-03-06T09:11:40;5.97;;;3.40;;
24151;SDS011;12311;50.866;4.332;2024-03-06T09:14:07;11.10;;;4.05;;
24151;SDS011;12311;50.866;4.332;2024-03-06T09:16:34;8.45;;;3.60;;
24151;SDS011;12311;50.866;4.332;2024-03-06T09:19:00;9.45;;;4.15;;
24151;SDS011;12311;50.866;4.332;2024-03-06T09:21:25;11.25;;;5.00;;
24151;SDS011;12311;50.866;4.332;2024-03-06T09:23:52;9.77;;;3.70;;
24151;SDS011;12311;50.866;4.332;2024-03-06T09:26:18;10.48;;;4.50;;
24151;SDS011;12311;50.866;4.332;2024-03-06T09:28:43;10.82;;;4.53;;
24151;SDS011;12311;50.866;4.332;2024-03-06T09:31:09;8.18;;;3.65;;
24151;SDS011;12311;50.866;4.332;2024-03-06T09:33:35;7.93;;;4.18;;
24151;SDS011;12311;50.866;4.332;2024-03-06T09:36:01;8.43;;;4.28;;
24151;SDS011;12311;50.866;4.332;2024-03-06T09:38:28;7.80;;;3.58;;
24151;SDS011;12311;50.866;4.332;2024-03-06T09:40:57;8.18;;;3.80;;
24151;SDS011;12311;50.866;4.332;2024-03-06T09:43:23;8.25;;;3.85;;
24151;SDS011;12311;50.866;4.332;2024-03-06T09:45:50;7.07;;;3.45;;
24151;SDS011;12311;50.866;4.332;2024-03-06T09:48:17;10.13;;;4.53;;
24151;SDS011;12311;50.866;4.332;2024-03-06T09:50:46;8.93;;;4.20;;
24151;SDS011;12311;50.866;4.332;2024-03-06T09:53:15;11.85;;;4.80;;
24151;SDS011;12311;50.866;4.332;2024-03-06T09:55:41;7.40;;;3.75;;
24151;SDS011;12311;50.866;4.332;2024-03-06T09:58:08;7.20;;;3.42;;
24151;SDS011;12311;50.866;4.332;2024-03-06T10:00:37;8.23;;;3.63;;
24151;SDS011;12311;50.866;4.332;2024-03-06T10:03:03;7.00;;;3.55;;
24151;SDS011;12311;50.866;4.332;2024-03-06T10:05:33;7.75;;;4.38;;
24151;SDS011;12311;50.866;4.332;2024-03-06T10:08:03;5.80;;;3.30;;
24151;SDS011;12311;50.866;4.332;2024-03-06T10:10:29;5.43;;;3.28;;
24151;SDS011;12311;50.866;4.332;2024-03-06T10:12:56;12.10;;;3.67;;
24151;SDS011;12311;50.866;4.332;2024-03-06T10:15:22;9.18;;;3.60;;
24151;SDS011;12311;50.866;4.332;2024-03-06T10:17:48;10.30;;;4.18;;
24151;SDS011;12311;50.866;4.332;2024-03-06T10:20:18;7.82;;;3.97;;
24151;SDS011;12311;50.866;4.332;2024-03-06T10:22:47;7.50;;;3.70;;
24151;SDS011;12311;50.866;4.332;2024-03-06T10:25:20;7.72;;;3.65;;
24151;SDS011;12311;50.866;4.332;2024-03-06T10:28:02;6.70;;;3.00;;
24151;SDS011;12311;50.866;4.332;2024-03-06T10:30:27;6.43;;;3.30;;
24151;SDS011;12311;50.866;4.332;2024-03-06T10:32:53;9.20;;;3.30;;
24151;SDS011;12311;50.866;4.332;2024-03-06T10:35:20;5.60;;;2.78;;
24151;SDS011;12311;50.866;4.332;2024-03-06T10:37:49;6.57;;;2.60;;
24151;SDS011;12311;50.866;4.332;2024-03-06T10:40:16;7.32;;;2.80;;
24151;SDS011;12311;50.866;4.332;2024-03-06T10:42:42;6.95;;;2.92;;
24151;SDS011;12311;50.866;4.332;2024-03-06T10:45:10;5.65;;;2.72;;
24151;SDS011;12311;50.866;4.332;2024-03-06T10:47:39;5.10;;;2.22;;
24151;SDS011;12311;50.866;4.332;2024-03-06T10:50:06;3.40;;;2.20;;
24151;SDS011;12311;50.866;4.332;2024-03-06T10:52:35;3.30;;;2.13;;
24151;SDS011;12311;50.866;4.332;2024-03-06T10:55:03;5.97;;;2.08;;
24151;SDS011;12311;50.866;4.332;2024-03-06T10:57:30;6.10;;;2.97;;
24151;SDS011;12311;50.866;4.332;2024-03-06T10:59:56;3.45;;;2.35;;
24151;SDS011;12311;50.866;4.332;2024-03-06T11:02:24;7.13;;;2.63;;
24151;SDS011;12311;50.866;4.332;2024-03-06T11:04:52;5.10;;;2.90;;
24151;SDS011;12311;50.866;4.332;2024-03-06T11:07:19;8.10;;;2.80;;
24151;SDS011;12311;50.866;4.332;2024-03-06T11:09:45;7.25;;;3.05;;
24151;SDS011;12311;50.866;4.332;2024-03-06T11:12:31;7.10;;;4.05;;
24151;SDS011;12311;50.866;4.332;2024-03-06T11:15:09;5.68;;;2.83;;
24151;SDS011;12311;50.866;4.332;2024-03-06T11:17:44;3.85;;;2.40;;
24151;SDS011;12311;50.866;4.332;2024-03-06T11:20:15;6.20;;;2.53;;
24151;SDS011;12311;50.866;4.332;2024-03-06T11:28:15;4.47;;;2.38;;
24151;SDS011;12311;50.866;4.332;2024-03-06T11:30:46;5.47;;;1.95;;
24151;SDS011;12311;50.866;4.332;2024-03-06T11:33:12;9.00;;;2.20;;
24151;SDS011;12311;50.866;4.332;2024-03-06T11:35:43;3.50;;;1.92;;
24151;SDS011;12311;50.866;4.332;2024-03-06T11:38:29;4.40;;;2.05;;
24151;SDS011;12311;50.866;4.332;2024-03-06T11:40:55;5.18;;;2.25;;
24151;SDS011;12311;50.866;4.332;2024-03-06T11:43:23;6.47;;;2.50;;
24151;SDS011;12311;50.866;4.332;2024-03-06T11:45:50;3.65;;;1.83;;
24151;SDS011;12311;50.866;4.332;2024-03-06T11:48:15;2.03;;;1.40;;
24151;SDS011;12311;50.866;4.332;2024-03-06T11:50:46;6.82;;;2.00;;
24151;SDS011;12311;50.866;4.332;2024-03-06T11:53:13;5.97;;;1.80;;
24151;SDS011;12311;50.866;4.332;2024-03-06T11:55:39;4.68;;;1.63;;
24151;SDS011;12311;50.866;4.332;2024-03-06T11:58:05;4.75;;;2.00;;
24151;SDS011;12311;50.866;4.332;2024-03-06T12:00:33;4.22;;;1.83;;
24151;SDS011;12311;50.866;4.332;2024-03-06T12:02:58;7.65;;;2.58;;
24151;SDS011;12311;50.866;4.332;2024-03-06T12:05:24;9.95;;;2.30;;
24151;SDS011;12311;50.866;4.332;2024-03-06T12:07:51;3.42;;;2.20;;
24151;SDS011;12311;50.866;4.332;2024-03-06T12:10:17;4.28;;;2.47;;
24151;SDS011;12311;50.866;4.332;2024-03-06T12:12:43;3.67;;;2.22;;
24151;SDS011;12311;50.866;4.332;2024-03-06T12:15:10;4.25;;;1.60;;
24151;SDS011;12311;50.866;4.332;2024-03-06T12:17:46;3.08;;;2.00;;
24151;SDS011;12311;50.866;4.332;2024-03-06T12:20:15;3.88;;;2.00;;
24151;SDS011;12311;50.866;4.332;2024-03-06T12:22:45;4.35;;;2.00;;
24151;SDS011;12311;50.866;4.332;2024-03-06T12:25:21;7.38;;;2.28;;
24151;SDS011;12311;50.866;4.332;2024-03-06T12:27:51;3.40;;;2.28;;
24151;SDS011;12311;50.866;4.332;2024-03-06T12:30:18;2.95;;;1.80;;
24151;SDS011;12311;50.866;4.332;2024-03-06T12:32:58;2.55;;;1.70;;
24151;SDS011;12311;50.866;4.332;2024-03-06T12:35:29;5.05;;;2.00;;
24151;SDS011;12311;50.866;4.332;2024-03-06T12:37:55;3.13;;;2.05;;
24151;SDS011;12311;50.866;4.332;2024-03-06T12:40:21;3.95;;;2.10;;
24151;SDS011;12311;50.866;4.332;2024-03-06T12:42:47;8.30;;;2.45;;
24151;SDS011;12311;50.866;4.332;2024-03-06T12:45:14;3.60;;;2.03;;
24151;SDS011;12311;50.866;4.332;2024-03-06T12:47:43;3.83;;;1.88;;
24151;SDS011;12311;50.866;4.332;2024-03-06T12:50:10;5.65;;;2.33;;
24151;SDS011;12311;50.866;4.332;2024-03-06T12:52:40;3.80;;;1.90;;
24151;SDS011;12311;50.866;4.332;2024-03-06T12:55:06;8.32;;;2.00;;
24151;SDS011;12311;50.866;4.332;2024-03-06T12:57:32;3.05;;;2.00;;
24151;SDS011;12311;50.866;4.332;2024-03-06T12:59:59;5.28;;;2.00;;
24151;SDS011;12311;50.866;4.332;2024-03-06T13:02:25;6.30;;;2.30;;
24151;SDS011;12311;50.866;4.332;2024-03-06T13:04:51;5.60;;;1.90;;
24151;SDS011;12311;50.866;4.332;2024-03-06T13:07:17;4.38;;;2.00;;
24151;SDS011;12311;50.866;4.332;2024-03-06T13:09:43;4.80;;;1.90;;
24151;SDS011;12311;50.866;4.332;2024-03-06T13:12:09;3.10;;;1.85;;
24151;SDS011;12311;50.866;4.332;2024-03-06T13:14:35;4.50;;;2.03;;
24151;SDS011;12311;50.866;4.332;2024-03-06T13:17:01;3.08;;;1.83;;
24151;SDS011;12311;50.866;4.332;2024-03-06T13:19:27;3.15;;;1.80;;
24151;SDS011;12311;50.866;4.332;2024-03-06T13:21:53;3.05;;;1.90;;
24151;SDS011;12311;50.866;4.332;2024-03-06T13:24:19;2.25;;;1.73;;
24151;SDS011;12311;50.866;4.332;2024-03-06T13:26:45;5.40;;;2.28;;
24151;SDS011;12311;50.866;4.332;2024-03-06T13:29:11;3.25;;;2.00;;
24151;SDS011;12311;50.866;4.332;2024-03-06T13:31:37;3.88;;;1.70;;
24151;SDS011;12311;50.866;4.332;2024-03-06T13:34:03;4.50;;;1.98;;
24151;SDS011;12311;50.866;4.332;2024-03-06T13:36:29;4.45;;;1.83;;
24151;SDS011;12311;50.866;4.332;2024-03-06T13:38:55;5.40;;;2.17;;
24151;SDS011;12311;50.866;4.332;2024-03-06T13:41:21;4.45;;;2.17;;
24151;SDS011;12311;50.866;4.332;2024-03-06T13:43:47;6.10;;;2.08;;
24151;SDS011;12311;50.866;4.332;2024-03-06T13:46:13;4.90;;;2.10;;
24151;SDS011;12311;50.866;4.332;2024-03-06T13:48:39;2.75;;;1.75;;
24151;SDS011;12311;50.866;4.332;2024-03-06T13:51:05;4.10;;;2.20;;
24151;SDS011;12311;50.866;4.332;2024-03-06T13:53:31;4.03;;;2.20;;
24151;SDS011;12311;50.866;4.332;2024-03-06T13:55:57;2.58;;;1.88;;
24151;SDS011;12311;50.866;4.332;2024-03-06T13:58:23;4.13;;;2.03;;
24151;SDS011;12311;50.866;4.332;2024-03-06T14:00:49;3.45;;;2.20;;
24151;SDS011;12311;50.866;4.332;2024-03-06T14:03:16;3.83;;;1.90;;
24151;SDS011;12311;50.866;4.332;2024-03-06T14:05:41;4.05;;;2.13;;
24151;SDS011;12311;50.866;4.332;2024-03-06T14:08:07;5.43;;;1.80;;
24151;SDS011;12311;50.866;4.332;2024-03-06T14:10:36;3.47;;;1.85;;
24151;SDS011;12311;50.866;4.332;2024-03-06T14:13:05;4.82;;;2.47;;
24151;SDS011;12311;50.866;4.332;2024-03-06T14:15:32;4.97;;;2.35;;
24151;SDS011;12311;50.866;4.332;2024-03-06T14:17:58;6.05;;;2.03;;
24151;SDS011;12311;50.866;4.332;2024-03-06T14:20:23;3.83;;;2.10;;
24151;SDS011;12311;50.866;4.332;2024-03-06T14:22:49;5.35;;;2.47;;
24151;SDS011;12311;50.866;4.332;2024-03-06T14:25:15;5.47;;;2.38;;
24151;SDS011;12311;50.866;4.332;2024-03-06T14:27:41;4.82;;;2.20;;
24151;SDS011;12311;50.866;4.332;2024-03-06T14:30:07;4.97;;;2.38;;
24151;SDS011;12311;50.866;4.332;2024-03-06T14:32:34;4.72;;;2.15;;
24151;SDS011;12311;50.866;4.332;2024-03-06T14:35:00;5.07;;;2.67;;
24151;SDS011;12311;50.866;4.332;2024-03-06T14:37:26;3.47;;;2.08;;
24151;SDS011;12311;50.866;4.332;2024-03-06T14:39:53;4.80;;;2.40;;
24151;SDS011;12311;50.866;4.332;2024-03-06T14:42:19;5.53;;;2.50;;
24151;SDS011;12311;50.866;4.332;2024-03-06T14:44:44;4.97;;;2.47;;
24151;SDS011;12311;50.866;4.332;2024-03-06T14:47:11;6.13;;;2.72;;
24151;SDS011;12311;50.866;4.332;2024-03-06T14:49:37;6.60;;;2.40;;